createdAt,value
2017-12-21T00:02:51.838Z,11.17
2017-12-21T00:07:54.387Z,13.90
2017-12-21T00:12:56.927Z,12.00
2017-12-21T00:17:59.482Z,11.30
2017-12-21T00:23:02.778Z,12.00
2017-12-21T00:28:05.326Z,11.53
2017-12-21T00:33:07.869Z,13.50
2017-12-21T00:38:10.410Z,12.50
2017-12-21T00:43:13.731Z,15.57
2017-12-21T00:48:17.053Z,13.70
2017-12-21T00:53:20.372Z,12.67
2017-12-21T00:58:22.903Z,15.77
2017-12-21T01:03:25.462Z,14.03
2017-12-21T01:08:28.010Z,14.80
2017-12-21T01:13:30.563Z,14.60
2017-12-21T01:18:34.162Z,14.00
2017-12-21T01:23:36.714Z,13.40
2017-12-21T01:28:39.274Z,15.27
2017-12-21T01:33:42.600Z,14.93
2017-12-21T01:38:45.147Z,14.33
2017-12-21T01:43:47.690Z,13.47
2017-12-21T01:48:50.233Z,15.80
2017-12-21T01:53:52.798Z,15.23
2017-12-21T01:58:55.347Z,16.03
2017-12-21T02:03:57.907Z,15.23
2017-12-21T02:09:00.460Z,14.93
2017-12-21T02:14:03.003Z,16.60
2017-12-21T02:19:05.546Z,15.70
2017-12-21T02:24:08.091Z,15.60
2017-12-21T02:29:10.650Z,15.77
2017-12-21T02:34:13.199Z,15.70
2017-12-21T02:39:15.740Z,16.67
2017-12-21T02:44:18.323Z,18.60
2017-12-21T02:49:20.903Z,16.70
2017-12-21T02:54:23.441Z,14.93
2017-12-21T02:59:25.984Z,16.10
2017-12-21T03:04:28.527Z,16.80
2017-12-21T03:09:31.083Z,13.07
2017-12-21T03:14:33.622Z,17.27
2017-12-21T03:19:36.178Z,17.90
2017-12-21T03:24:38.734Z,17.93
2017-12-21T03:29:41.275Z,16.00
2017-12-21T03:34:43.815Z,15.00
2017-12-21T03:39:47.119Z,16.10
2017-12-21T03:44:49.654Z,18.30
2017-12-21T03:49:52.194Z,18.67
2017-12-21T03:54:54.718Z,17.20
2017-12-21T03:59:57.322Z,17.97
2017-12-21T04:04:59.802Z,18.53
2017-12-21T04:10:02.354Z,16.07
2017-12-21T04:15:05.666Z,18.13
2017-12-21T04:20:08.232Z,18.83
2017-12-21T04:25:10.781Z,18.30
2017-12-21T04:30:14.078Z,19.27
2017-12-21T04:35:16.640Z,14.60
2017-12-21T04:40:19.185Z,17.57
2017-12-21T04:45:21.726Z,17.57
2017-12-21T04:50:24.254Z,16.40
2017-12-21T04:55:26.800Z,18.93
2017-12-21T05:00:29.351Z,18.80
2017-12-21T05:05:31.870Z,17.93
2017-12-21T05:10:34.409Z,16.03
2017-12-21T05:15:36.950Z,18.63
2017-12-21T05:20:39.490Z,15.47
2017-12-21T05:25:42.014Z,18.50
2017-12-21T05:30:44.560Z,18.60
2017-12-21T05:35:47.111Z,19.47
2017-12-21T05:40:49.649Z,17.10
2017-12-21T05:45:52.209Z,16.60
2017-12-21T05:50:54.751Z,22.20
2017-12-21T05:55:57.314Z,18.50
2017-12-21T06:00:59.864Z,18.80
2017-12-21T06:06:02.410Z,19.70
2017-12-21T06:11:04.978Z,17.30
2017-12-21T06:16:07.559Z,17.37
2017-12-21T06:21:10.086Z,15.23
2017-12-21T06:26:12.623Z,16.40
2017-12-21T06:31:15.171Z,16.90
2017-12-21T06:36:17.719Z,17.13
2017-12-21T06:41:20.274Z,16.50
2017-12-21T06:46:22.822Z,15.50
2017-12-21T06:51:25.367Z,15.77
2017-12-21T06:56:27.906Z,17.30
2017-12-21T07:01:30.463Z,16.60
2017-12-21T07:06:33.010Z,12.40
2017-12-21T07:11:35.578Z,16.53
2017-12-21T07:16:38.151Z,14.10
2017-12-21T07:21:40.687Z,16.03
2017-12-21T07:26:43.234Z,16.17
2017-12-21T07:31:46.542Z,15.27
2017-12-21T07:36:49.122Z,16.90
2017-12-21T07:41:51.667Z,16.43
2017-12-21T07:46:54.207Z,16.67
2017-12-21T07:51:56.771Z,16.07
2017-12-21T07:56:59.334Z,15.77
2017-12-21T08:02:01.887Z,17.73
2017-12-21T08:07:04.420Z,16.37
2017-12-21T08:12:06.959Z,16.73
2017-12-21T08:17:09.498Z,13.90
2017-12-21T08:22:12.034Z,14.97
2017-12-21T08:27:15.337Z,15.90
2017-12-21T08:32:17.872Z,16.47
2017-12-21T08:37:20.411Z,15.73
2017-12-21T08:42:22.960Z,16.30
2017-12-21T08:47:25.507Z,16.27
2017-12-21T08:52:28.070Z,15.37
2017-12-21T08:57:30.619Z,16.07
2017-12-21T09:02:33.163Z,16.90
2017-12-21T09:07:35.710Z,16.57
2017-12-21T09:12:38.273Z,16.50
2017-12-21T09:17:40.810Z,17.67
2017-12-21T09:22:43.355Z,15.37
2017-12-21T09:27:45.894Z,16.03
2017-12-21T09:32:48.431Z,16.07
2017-12-21T09:37:51.759Z,14.47
2017-12-21T09:42:54.306Z,16.70
2017-12-21T09:47:56.850Z,13.97
2017-12-21T09:52:59.402Z,16.17
2017-12-21T09:58:01.963Z,13.27
2017-12-21T10:03:04.505Z,12.93
2017-12-21T10:08:07.046Z,12.30
2017-12-21T10:13:10.352Z,15.00
2017-12-21T10:18:12.904Z,14.67
2017-12-21T10:23:15.450Z,11.83
2017-12-21T10:28:18.002Z,11.60
2017-12-21T10:33:20.554Z,13.40
2017-12-21T10:38:23.879Z,11.00
2017-12-21T10:43:27.189Z,9.30
2017-12-21T10:48:30.508Z,9.80
2017-12-21T10:53:33.076Z,10.90
2017-12-21T10:58:35.622Z,8.57
2017-12-21T11:03:38.206Z,9.97
2017-12-21T11:08:40.736Z,10.10
2017-12-21T11:13:43.287Z,9.77
2017-12-21T11:18:46.597Z,8.50
2017-12-21T11:23:49.126Z,7.70
2017-12-21T11:28:51.657Z,7.27
2017-12-21T11:33:54.201Z,8.87
2017-12-21T11:38:57.519Z,7.27
2017-12-21T11:44:00.059Z,5.87
2017-12-21T11:49:02.636Z,6.67
2017-12-21T11:54:05.178Z,5.50
2017-12-21T11:59:07.732Z,6.57
2017-12-21T12:04:10.274Z,6.90
2017-12-21T12:09:12.811Z,6.37
2017-12-21T12:14:15.359Z,5.63
2017-12-21T12:19:17.892Z,7.30
2017-12-21T12:24:20.447Z,5.27
2017-12-21T12:29:22.994Z,4.80
2017-12-21T12:34:26.325Z,5.43
2017-12-21T12:39:29.646Z,6.27
2017-12-21T12:44:32.964Z,5.43
2017-12-21T12:49:36.295Z,4.57
2017-12-21T12:54:38.836Z,5.30
2017-12-21T12:59:41.398Z,5.90
2017-12-21T13:04:43.932Z,4.67
2017-12-21T13:09:46.463Z,5.23
2017-12-21T13:14:49.002Z,5.23
2017-12-21T13:19:51.558Z,4.90
2017-12-21T13:24:54.874Z,5.40
2017-12-21T13:29:57.449Z,5.30
2017-12-21T13:34:59.989Z,5.03
2017-12-21T13:40:02.527Z,4.90
2017-12-21T13:45:05.080Z,3.97
2017-12-21T13:50:08.391Z,6.07
2017-12-21T13:55:11.691Z,5.90
2017-12-21T14:00:14.227Z,3.90
2017-12-21T14:05:16.765Z,5.13
2017-12-21T14:10:19.303Z,4.80
2017-12-21T14:15:21.843Z,4.93
2017-12-21T14:20:24.370Z,4.87
2017-12-21T14:25:26.907Z,5.57
2017-12-21T14:30:29.440Z,4.87
2017-12-21T14:35:31.970Z,5.60
2017-12-21T14:40:34.515Z,4.90
2017-12-21T14:45:37.050Z,4.97
2017-12-21T14:50:40.355Z,5.17
2017-12-21T14:55:42.897Z,5.90
2017-12-21T15:00:46.182Z,4.53
2017-12-21T15:05:48.732Z,4.40
2017-12-21T15:10:51.258Z,5.47
2017-12-21T15:15:53.802Z,5.20
2017-12-21T15:20:57.098Z,5.40
2017-12-21T15:25:59.636Z,4.93
2017-12-21T15:31:02.177Z,5.33
2017-12-21T15:36:04.715Z,5.80
2017-12-21T15:41:08.024Z,5.93
2017-12-21T15:46:10.794Z,6.70
2017-12-21T15:51:14.109Z,7.20
2017-12-21T15:56:16.666Z,6.17
2017-12-21T16:01:19.207Z,6.27
2017-12-21T16:06:21.731Z,6.50
2017-12-21T16:11:24.273Z,5.80
2017-12-21T16:16:26.814Z,5.50
2017-12-21T16:21:29.347Z,5.50
2017-12-21T16:26:32.654Z,5.20
2017-12-21T16:31:35.951Z,5.30
2017-12-21T16:36:38.491Z,4.80
2017-12-21T16:41:41.027Z,4.07
2017-12-21T16:46:43.594Z,4.90
2017-12-21T16:51:46.133Z,3.73
2017-12-21T16:56:48.669Z,4.00
2017-12-21T17:01:52.004Z,3.30
2017-12-21T17:06:54.559Z,2.77
2017-12-21T17:11:57.658Z,3.60
2017-12-21T17:17:00.218Z,3.07
2017-12-21T17:22:03.516Z,2.93
2017-12-21T17:27:06.825Z,3.57
2017-12-21T17:32:09.355Z,2.60
2017-12-21T17:37:11.916Z,2.80
2017-12-21T17:47:27.655Z,2.10
2017-12-21T17:52:30.195Z,4.00
2017-12-21T17:57:32.735Z,3.30
2017-12-21T18:02:36.035Z,2.07
2017-12-21T18:07:38.579Z,2.43
2017-12-21T18:12:41.883Z,2.23
2017-12-21T18:17:45.219Z,2.03
2017-12-21T18:22:47.753Z,3.60
2017-12-21T18:27:50.295Z,2.10
2017-12-21T18:32:53.602Z,1.87
2017-12-21T18:37:56.904Z,2.67
2017-12-21T18:42:59.452Z,2.40
2017-12-21T18:48:02.003Z,2.33
2017-12-21T18:53:04.546Z,3.27
2017-12-21T18:58:07.091Z,2.57
2017-12-21T19:03:09.635Z,4.03
2017-12-21T19:08:12.181Z,2.90
2017-12-21T19:13:14.736Z,2.87
2017-12-21T19:18:17.279Z,3.23
2017-12-21T19:23:19.830Z,2.77
2017-12-21T19:28:23.160Z,3.70
2017-12-21T19:33:25.794Z,3.27
2017-12-21T19:38:28.343Z,3.40
2017-12-21T19:43:31.651Z,3.50
2017-12-21T19:48:34.980Z,3.67
2017-12-21T19:53:37.521Z,3.20
2017-12-21T19:58:40.077Z,3.57
2017-12-21T20:03:43.382Z,3.13
2017-12-21T20:08:46.793Z,3.90
2017-12-21T20:13:49.390Z,3.90
2017-12-21T20:18:52.864Z,3.50
2017-12-21T20:23:55.423Z,4.07
2017-12-21T20:28:58.741Z,3.77
2017-12-21T20:34:02.055Z,3.50
2017-12-21T20:39:05.401Z,4.00
2017-12-21T20:44:07.962Z,4.83
2017-12-21T20:49:10.495Z,4.33
2017-12-21T20:54:13.039Z,4.57
2017-12-21T20:59:16.146Z,5.23
2017-12-21T21:04:18.692Z,4.70
2017-12-21T21:09:21.215Z,4.47
2017-12-21T21:14:23.763Z,4.70
2017-12-21T21:19:26.315Z,5.90
2017-12-21T21:24:28.855Z,4.97
2017-12-21T21:29:31.399Z,4.87
2017-12-21T21:34:33.923Z,5.20
2017-12-21T21:39:36.462Z,5.57
2017-12-21T21:44:39.002Z,5.20
2017-12-21T21:49:41.562Z,6.30
2017-12-21T21:54:44.906Z,4.47
2017-12-21T21:59:47.438Z,5.20
2017-12-21T22:04:49.975Z,5.30
2017-12-21T22:09:53.281Z,5.00
2017-12-21T22:14:55.847Z,5.17
2017-12-21T22:19:59.146Z,4.67
2017-12-21T22:25:01.685Z,4.67
2017-12-21T22:30:04.249Z,5.10
2017-12-21T22:35:06.791Z,5.13
2017-12-21T22:40:09.330Z,4.87
2017-12-21T22:45:11.850Z,5.80
2017-12-21T22:50:14.394Z,5.60
2017-12-21T22:55:18.654Z,15.70
2017-12-21T23:00:24.993Z,4.77
2017-12-21T23:05:27.526Z,4.90
2017-12-21T23:10:30.072Z,6.00
2017-12-21T23:15:32.614Z,6.07
2017-12-21T23:20:35.923Z,5.07
2017-12-21T23:25:39.236Z,5.80
2017-12-21T23:30:42.547Z,5.57
2017-12-21T23:40:57.283Z,5.37
2017-12-21T23:45:59.820Z,4.37
2017-12-21T23:51:02.354Z,4.37
2017-12-21T23:56:04.890Z,5.40
